Time;durP1;ratioP1;P1;durP2;ratioP2;P2;SDS_P1;SDS_P2;PMS_P1;PMS_P2;Temp;Humidity;BMP_temperature;BMP_pressure;BME280_temperature;BME280_humidity;BME280_pressure;Samples;Min_cycle;Max_cycle;Signal;HPM_P1;HPM_P2
2021/08/16 00:01:24;;;;;;;10.50;5.28;;;;;;;;;;4954137;28;20047;-84
2021/08/16 00:03:51;;;;;;;14.02;5.40;;;;;;;;;;4969634;28;20653;-85
2021/08/16 00:06:19;;;;;;;14.05;5.30;;;;;;;;;;4950769;28;20857;-84
2021/08/16 00:08:46;;;;;;;14.55;5.40;;;;;;;;;;4970974;28;20124;-85
2021/08/16 00:11:13;;;;;;;12.43;5.70;;;;;;;;;;4955215;28;20090;-85
2021/08/16 00:13:41;;;;;;;13.25;6.03;;;;;;;;;;4961902;28;20781;-85
2021/08/16 00:16:08;;;;;;;12.45;5.20;;;;;;;;;;4961167;28;20059;-85
2021/08/16 00:18:35;;;;;;;9.50;5.82;;;;;;;;;;4950113;28;20158;-85
2021/08/16 00:21:03;;;;;;;20.35;7.10;;;;;;;;;;4949231;28;20085;-85
2021/08/16 00:23:30;;;;;;;14.50;6.30;;;;;;;;;;4950401;28;20134;-85
2021/08/16 00:25:57;;;;;;;21.23;6.93;;;;;;;;;;4949300;28;20074;-85
2021/08/16 00:28:25;;;;;;;10.90;5.43;;;;;;;;;;4949681;28;20133;-85
2021/08/16 00:30:52;;;;;;;13.98;5.53;;;;;;;;;;4949513;28;20134;-85
2021/08/16 00:33:19;;;;;;;33.90;9.50;;;;;;;;;;4949713;28;20054;-86
2021/08/16 00:35:46;;;;;;;23.02;7.70;;;;;;;;;;4949263;28;20467;-86
2021/08/16 00:38:14;;;;;;;12.70;5.70;;;;;;;;;;4966860;28;20624;-86
2021/08/16 00:40:41;;;;;;;11.30;5.15;;;;;;;;;;4943824;28;20149;-86
2021/08/16 00:43:08;;;;;;;14.55;6.45;;;;;;;;;;4947804;28;20133;-86
2021/08/16 00:45:36;;;;;;;9.90;4.68;;;;;;;;;;4950135;28;20525;-86
2021/08/16 00:48:04;;;;;;;10.63;4.30;;;;;;;;;;4945248;28;20153;-86
2021/08/16 00:50:31;;;;;;;8.93;4.50;;;;;;;;;;4952259;28;20141;-86
2021/08/16 00:52:58;;;;;;;9.63;5.15;;;;;;;;;;4952705;28;20183;-86
2021/08/16 00:55:26;;;;;;;21.83;4.97;;;;;;;;;;4953704;28;20466;-86
2021/08/16 00:57:54;;;;;;;10.60;4.32;;;;;;;;;;4954404;28;20126;-86
2021/08/16 01:00:21;;;;;;;12.18;4.18;;;;;;;;;;4955226;28;20049;-86
2021/08/16 01:02:56;;;;;;;8.18;4.15;;;;;;;;;;4972014;28;20074;-86
2021/08/16 01:05:24;;;;;;;9.52;4.25;;;;;;;;;;4971959;28;20807;-86
2021/08/16 01:07:51;;;;;;;10.48;4.18;;;;;;;;;;4939813;29;20083;-86
2021/08/16 01:10:21;;;;;;;13.68;4.68;;;;;;;;;;4965721;28;20086;-86
2021/08/16 01:12:49;;;;;;;8.63;4.22;;;;;;;;;;4965681;28;20063;-86
2021/08/16 01:15:17;;;;;;;8.38;4.15;;;;;;;;;;4967795;28;20673;-86
2021/08/16 01:17:44;;;;;;;11.77;4.25;;;;;;;;;;4951066;28;20066;-86
2021/08/16 01:20:14;;;;;;;8.00;4.35;;;;;;;;;;4961183;28;20129;-86
2021/08/16 01:22:42;;;;;;;11.95;5.18;;;;;;;;;;4948805;28;20133;-85
2021/08/16 01:25:10;;;;;;;13.82;5.53;;;;;;;;;;4970489;28;20051;-84
2021/08/16 01:27:38;;;;;;;15.48;6.30;;;;;;;;;;4960811;28;20119;-86
2021/08/16 01:30:07;;;;;;;10.20;5.10;;;;;;;;;;4976139;28;20125;-86
2021/08/16 01:32:34;;;;;;;16.65;7.50;;;;;;;;;;4958164;28;20276;-86
2021/08/16 01:35:03;;;;;;;10.05;5.63;;;;;;;;;;4965572;28;20054;-86
2021/08/16 01:37:30;;;;;;;10.10;5.03;;;;;;;;;;4957551;28;20635;-86
2021/08/16 01:39:58;;;;;;;13.15;5.63;;;;;;;;;;4959290;28;20082;-87
2021/08/16 01:42:25;;;;;;;14.13;5.25;;;;;;;;;;4956248;28;20551;-88
2021/08/16 01:44:52;;;;;;;18.33;6.20;;;;;;;;;;4963423;28;20126;-87
2021/08/16 01:47:19;;;;;;;15.30;5.68;;;;;;;;;;4955913;28;20507;-86
2021/08/16 01:49:47;;;;;;;11.57;6.00;;;;;;;;;;4968432;28;20094;-88
2021/08/16 01:52:22;;;;;;;16.08;6.47;;;;;;;;;;4973986;28;20133;-88
2021/08/16 01:54:49;;;;;;;18.30;6.55;;;;;;;;;;4957336;28;20055;-90
2021/08/16 01:57:16;;;;;;;13.40;6.95;;;;;;;;;;4950830;28;20139;-89
2021/08/16 01:59:43;;;;;;;20.98;8.32;;;;;;;;;;4958541;28;20483;-90
2021/08/16 02:02:10;;;;;;;16.17;6.95;;;;;;;;;;4975935;28;20134;-89
2021/08/16 02:04:38;;;;;;;15.75;7.00;;;;;;;;;;4975993;28;20054;-90
2021/08/16 02:07:06;;;;;;;14.85;6.88;;;;;;;;;;4952348;29;20071;-91
2021/08/16 02:09:33;;;;;;;16.45;7.40;;;;;;;;;;4955707;28;20138;-89
2021/08/16 02:12:00;;;;;;;18.00;7.70;;;;;;;;;;4971740;28;20055;-90
2021/08/16 02:14:27;;;;;;;17.23;8.27;;;;;;;;;;4959263;28;20057;-90
2021/08/16 02:16:54;;;;;;;15.93;7.97;;;;;;;;;;4975966;28;20059;-91
2021/08/16 02:19:27;;;;;;;19.33;9.30;;;;;;;;;;4966081;28;20046;-91
2021/08/16 02:21:54;;;;;;;12.80;7.60;;;;;;;;;;4976593;28;20138;-91
2021/08/16 02:24:21;;;;;;;24.27;9.50;;;;;;;;;;4975817;28;20050;-90
2021/08/16 02:26:57;;;;;;;18.75;8.68;;;;;;;;;;4954736;28;20551;-89
2021/08/16 02:29:24;;;;;;;15.90;8.13;;;;;;;;;;4958421;28;20055;-92
2021/08/16 02:31:53;;;;;;;18.08;8.00;;;;;;;;;;4960123;28;20074;-90
2021/08/16 02:34:20;;;;;;;22.17;8.48;;;;;;;;;;4954220;28;20514;-92
2021/08/16 02:36:47;;;;;;;21.25;8.45;;;;;;;;;;4972703;28;20074;-91
2021/08/16 02:39:14;;;;;;;28.35;9.82;;;;;;;;;;4975856;28;20086;-91
2021/08/16 02:41:43;;;;;;;26.00;9.27;;;;;;;;;;4954312;28;20122;-91
2021/08/16 02:44:10;;;;;;;23.70;8.68;;;;;;;;;;4971010;28;20142;-88
2021/08/16 02:46:37;;;;;;;20.58;9.82;;;;;;;;;;4956081;28;20131;-89
2021/08/16 02:49:04;;;;;;;19.55;9.60;;;;;;;;;;4950640;28;20051;-88
2021/08/16 02:51:31;;;;;;;19.75;10.00;;;;;;;;;;4972068;28;20126;-89
2021/08/16 02:53:58;;;;;;;24.65;9.23;;;;;;;;;;4966951;28;20121;-89
2021/08/16 02:56:26;;;;;;;19.88;10.05;;;;;;;;;;4946576;28;20134;-90
2021/08/16 02:58:53;;;;;;;24.52;10.70;;;;;;;;;;4973238;28;20085;-90
2021/08/16 03:01:20;;;;;;;20.60;9.88;;;;;;;;;;4974188;28;20530;-91
2021/08/16 03:03:47;;;;;;;23.65;9.30;;;;;;;;;;4956854;28;20066;-91
2021/08/16 03:06:15;;;;;;;23.42;10.40;;;;;;;;;;4968385;28;20138;-91
2021/08/16 03:08:52;;;;;;;28.58;9.82;;;;;;;;;;4963368;28;20079;-91
2021/08/16 03:11:19;;;;;;;23.63;9.95;;;;;;;;;;4959491;28;20089;-90
2021/08/16 03:13:47;;;;;;;27.33;11.18;;;;;;;;;;4954007;28;20079;-87
2021/08/16 03:16:14;;;;;;;38.60;11.27;;;;;;;;;;4956811;28;20101;-88
2021/08/16 03:18:42;;;;;;;30.50;11.25;;;;;;;;;;4966249;28;20043;-88
2021/08/16 03:21:09;;;;;;;32.75;11.10;;;;;;;;;;4956828;28;20465;-88
2021/08/16 03:23:36;;;;;;;29.77;10.75;;;;;;;;;;4973592;28;20137;-88
2021/08/16 03:26:04;;;;;;;25.25;10.65;;;;;;;;;;4971097;28;20133;-88
2021/08/16 03:28:31;;;;;;;28.80;10.98;;;;;;;;;;4950740;28;20565;-89
2021/08/16 03:31:00;;;;;;;34.63;12.05;;;;;;;;;;4956838;28;20145;-90
2021/08/16 03:33:27;;;;;;;29.92;11.55;;;;;;;;;;4957362;28;20081;-89
2021/08/16 03:35:54;;;;;;;30.20;10.48;;;;;;;;;;4973955;28;20078;-89
2021/08/16 03:38:21;;;;;;;35.95;12.15;;;;;;;;;;4941773;29;20051;-90
2021/08/16 03:40:49;;;;;;;30.13;12.35;;;;;;;;;;4938184;29;20468;-90
2021/08/16 03:43:16;;;;;;;25.17;11.48;;;;;;;;;;4970742;28;20146;-91
2021/08/16 03:45:45;;;;;;;24.33;10.55;;;;;;;;;;4957256;28;20057;-90
2021/08/16 03:48:13;;;;;;;26.67;10.52;;;;;;;;;;4957011;28;20042;-90
2021/08/16 03:50:40;;;;;;;26.38;11.23;;;;;;;;;;4956324;28;20085;-90
2021/08/16 03:53:08;;;;;;;34.72;10.70;;;;;;;;;;4955887;28;20081;-90
2021/08/16 03:55:35;;;;;;;19.77;9.35;;;;;;;;;;4971105;28;20078;-90
2021/08/16 03:58:07;;;;;;;25.48;8.82;;;;;;;;;;4949058;28;20474;-90
2021/08/16 04:00:35;;;;;;;27.73;9.90;;;;;;;;;;4954731;28;20127;-91
2021/08/16 04:03:02;;;;;;;24.35;10.30;;;;;;;;;;4961578;28;20043;-90
2021/08/16 04:05:30;;;;;;;25.02;9.77;;;;;;;;;;4957008;28;20073;-91
2021/08/16 04:07:57;;;;;;;23.65;9.70;;;;;;;;;;4973527;28;20129;-90
2021/08/16 04:10:25;;;;;;;21.25;8.98;;;;;;;;;;4955855;28;20167;-89
2021/08/16 04:12:52;;;;;;;27.33;10.27;;;;;;;;;;4956440;28;20058;-89
2021/08/16 04:15:24;;;;;;;35.50;10.18;;;;;;;;;;4952856;28;20093;-89
2021/08/16 04:17:51;;;;;;;22.15;9.15;;;;;;;;;;4950503;28;20050;-90
2021/08/16 04:20:19;;;;;;;28.10;10.48;;;;;;;;;;4956721;28;20776;-90
2021/08/16 04:22:52;;;;;;;39.85;10.73;;;;;;;;;;4974375;28;20458;-90
2021/08/16 04:25:36;;;;;;;31.30;11.05;;;;;;;;;;4957131;28;20050;-90
2021/08/16 04:28:14;;;;;;;37.63;10.82;;;;;;;;;;4956733;28;20049;-89
2021/08/16 04:30:41;;;;;;;29.40;11.10;;;;;;;;;;4959584;28;20125;-89
2021/08/16 04:33:09;;;;;;;34.65;10.45;;;;;;;;;;4955737;28;20125;-90
2021/08/16 04:35:36;;;;;;;32.28;10.00;;;;;;;;;;4964158;28;20503;-89
2021/08/16 04:38:03;;;;;;;31.85;11.20;;;;;;;;;;4942027;28;20054;-90
2021/08/16 04:40:30;;;;;;;42.05;11.38;;;;;;;;;;4969751;28;20086;-90
2021/08/16 04:42:58;;;;;;;37.40;12.00;;;;;;;;;;4954106;29;20082;-90
2021/08/16 04:45:25;;;;;;;37.05;12.15;;;;;;;;;;4949609;28;20070;-88
2021/08/16 04:47:53;;;;;;;29.45;11.45;;;;;;;;;;4950736;28;20050;-86
2021/08/16 04:50:21;;;;;;;34.40;16.02;;;;;;;;;;4957320;28;20066;-86
2021/08/16 04:52:51;;;;;;;40.30;11.88;;;;;;;;;;4943771;28;20089;-86
2021/08/16 04:55:22;;;;;;;48.63;15.15;;;;;;;;;;4950662;28;20066;-87
2021/08/16 04:57:50;;;;;;;30.00;12.00;;;;;;;;;;4953276;28;20074;-86
2021/08/16 05:00:20;;;;;;;37.63;12.80;;;;;;;;;;4961312;28;20043;-88
2021/08/16 05:02:47;;;;;;;35.47;12.27;;;;;;;;;;4971911;28;20102;-90
2021/08/16 05:05:14;;;;;;;29.65;11.60;;;;;;;;;;4972716;28;20074;-89
2021/08/16 05:07:47;;;;;;;37.83;11.93;;;;;;;;;;4964418;28;20495;-90
2021/08/16 05:10:16;;;;;;;34.75;11.70;;;;;;;;;;4966862;28;20507;-90
2021/08/16 05:12:43;;;;;;;30.08;11.88;;;;;;;;;;4950352;28;20078;-90
2021/08/16 05:15:11;;;;;;;34.15;12.50;;;;;;;;;;4971926;28;20049;-88
2021/08/16 05:17:38;;;;;;;36.92;12.38;;;;;;;;;;4972503;28;20051;-89
2021/08/16 05:20:06;;;;;;;36.97;12.45;;;;;;;;;;4955514;28;20049;-90
2021/08/16 05:22:34;;;;;;;35.58;11.93;;;;;;;;;;4962774;28;20133;-89
2021/08/16 05:25:06;;;;;;;33.53;12.23;;;;;;;;;;4944929;28;20042;-84
2021/08/16 05:27:33;;;;;;;27.30;10.98;;;;;;;;;;4968553;28;20787;-82
2021/08/16 05:30:02;;;;;;;35.92;11.85;;;;;;;;;;4965973;28;20138;-84
2021/08/16 05:32:31;;;;;;;35.40;12.63;;;;;;;;;;4953060;28;20563;-87
2021/08/16 05:35:04;;;;;;;29.25;10.95;;;;;;;;;;4954428;28;20047;-88
2021/08/16 05:37:32;;;;;;;22.95;11.02;;;;;;;;;;4971382;28;20085;-85
2021/08/16 05:39:59;;;;;;;25.10;10.23;;;;;;;;;;4969622;28;20385;-86
2021/08/16 05:42:26;;;;;;;29.50;10.75;;;;;;;;;;4956221;28;20059;-86
2021/08/16 05:44:53;;;;;;;21.25;10.10;;;;;;;;;;4950845;28;20520;-86
2021/08/16 05:47:20;;;;;;;23.80;10.43;;;;;;;;;;4957765;28;20078;-85
2021/08/16 05:49:47;;;;;;;31.58;11.13;;;;;;;;;;4956378;28;20484;-84
2021/08/16 05:52:15;;;;;;;28.45;10.80;;;;;;;;;;4947407;28;20440;-86
2021/08/16 05:54:50;;;;;;;23.05;10.57;;;;;;;;;;4971579;28;20047;-86
2021/08/16 05:57:17;;;;;;;31.05;10.45;;;;;;;;;;4953161;28;20753;-86
2021/08/16 05:59:44;;;;;;;32.40;10.15;;;;;;;;;;4947436;28;20557;-86
2021/08/16 06:02:14;;;;;;;24.58;11.73;;;;;;;;;;4964172;28;20081;-87
2021/08/16 06:04:41;;;;;;;24.25;10.70;;;;;;;;;;4938266;28;20062;-86
2021/08/16 06:07:09;;;;;;;24.55;11.50;;;;;;;;;;4959596;28;20047;-86
2021/08/16 06:09:38;;;;;;;25.33;9.77;;;;;;;;;;4951643;28;20484;-86
2021/08/16 06:12:05;;;;;;;27.95;11.15;;;;;;;;;;4972114;28;20129;-86
2021/08/16 06:14:34;;;;;;;29.13;9.90;;;;;;;;;;4957180;28;20134;-86
2021/08/16 06:17:01;;;;;;;25.30;10.00;;;;;;;;;;4975693;28;20055;-86
2021/08/16 06:19:28;;;;;;;22.33;9.93;;;;;;;;;;4958419;28;20082;-85
2021/08/16 06:21:55;;;;;;;18.55;9.57;;;;;;;;;;4975254;28;20531;-86
2021/08/16 06:24:22;;;;;;;24.70;10.10;;;;;;;;;;4975008;28;20728;-85
2021/08/16 06:26:50;;;;;;;18.17;8.90;;;;;;;;;;4950031;28;20102;-86
2021/08/16 06:29:17;;;;;;;26.65;9.93;;;;;;;;;;4955373;28;20093;-86
2021/08/16 06:31:44;;;;;;;25.23;8.88;;;;;;;;;;4954643;28;20465;-87
2021/08/16 06:34:12;;;;;;;21.58;9.93;;;;;;;;;;4967451;28;20488;-86
2021/08/16 06:36:40;;;;;;;23.33;9.65;;;;;;;;;;4958789;28;20070;-87
2021/08/16 06:39:18;;;;;;;19.83;9.40;;;;;;;;;;4962864;28;20510;-86
2021/08/16 06:41:46;;;;;;;25.92;10.50;;;;;;;;;;4967070;28;20042;-86
2021/08/16 06:44:13;;;;;;;18.55;9.05;;;;;;;;;;4959426;28;20134;-86
2021/08/16 06:46:41;;;;;;;29.02;9.88;;;;;;;;;;4956272;28;20484;-86
2021/08/16 06:49:08;;;;;;;22.00;9.68;;;;;;;;;;4974586;28;20491;-86
2021/08/16 06:51:35;;;;;;;21.65;9.10;;;;;;;;;;4942345;29;20126;-86
2021/08/16 06:54:07;;;;;;;20.40;7.88;;;;;;;;;;4960063;28;20129;-86
2021/08/16 06:56:56;;;;;;;19.30;9.82;;;;;;;;;;4949861;28;20095;-85
2021/08/16 06:59:25;;;;;;;21.75;8.65;;;;;;;;;;4960872;28;20125;-86
2021/08/16 07:01:52;;;;;;;24.95;10.52;;;;;;;;;;4974635;28;20129;-86
2021/08/16 07:04:20;;;;;;;15.95;8.95;;;;;;;;;;4971006;28;20054;-86
2021/08/16 07:06:48;;;;;;;25.40;8.65;;;;;;;;;;4949100;28;20559;-86
2021/08/16 07:09:15;;;;;;;27.42;8.38;;;;;;;;;;4955133;28;20043;-87
2021/08/16 07:11:44;;;;;;;18.27;9.32;;;;;;;;;;4954953;28;20101;-86
2021/08/16 07:14:11;;;;;;;22.02;8.80;;;;;;;;;;4953163;28;20494;-86
2021/08/16 07:16:38;;;;;;;19.50;8.60;;;;;;;;;;4956275;28;20547;-86
2021/08/16 07:19:06;;;;;;;21.55;9.82;;;;;;;;;;4952748;29;20054;-87
2021/08/16 07:21:33;;;;;;;20.55;10.57;;;;;;;;;;4955756;28;20061;-87
2021/08/16 07:24:00;;;;;;;22.92;10.00;;;;;;;;;;4972719;28;20499;-87
2021/08/16 07:26:27;;;;;;;21.05;10.18;;;;;;;;;;4949834;28;20134;-87
2021/08/16 07:28:56;;;;;;;22.77;11.07;;;;;;;;;;4966382;28;20668;-86
2021/08/16 07:31:23;;;;;;;27.17;12.07;;;;;;;;;;4973153;28;20055;-86
2021/08/16 07:33:51;;;;;;;22.35;10.68;;;;;;;;;;4956312;28;20046;-82
2021/08/16 07:36:18;;;;;;;24.63;11.88;;;;;;;;;;4954167;28;20054;-83
2021/08/16 07:38:45;;;;;;;26.92;11.00;;;;;;;;;;4954616;28;20078;-82
2021/08/16 07:41:13;;;;;;;26.67;11.15;;;;;;;;;;4948684;29;20061;-85
2021/08/16 07:43:40;;;;;;;27.35;12.07;;;;;;;;;;4960907;28;20150;-81
2021/08/16 07:46:07;;;;;;;27.55;12.27;;;;;;;;;;4967436;28;20166;-82
2021/08/16 07:48:35;;;;;;;28.90;12.63;;;;;;;;;;4939477;28;20059;-82
2021/08/16 07:51:03;;;;;;;25.30;11.45;;;;;;;;;;4939386;29;20043;-82
2021/08/16 07:53:30;;;;;;;32.90;12.93;;;;;;;;;;4949745;28;20054;-82
2021/08/16 07:55:59;;;;;;;23.48;11.45;;;;;;;;;;4944915;28;20767;-82
2021/08/16 07:58:27;;;;;;;30.13;12.52;;;;;;;;;;4946242;28;20055;-82
2021/08/16 08:00:54;;;;;;;26.35;11.73;;;;;;;;;;4970182;28;20049;-82
2021/08/16 08:03:21;;;;;;;30.70;12.05;;;;;;;;;;4955393;28;20046;-81
2021/08/16 08:05:51;;;;;;;23.15;12.27;;;;;;;;;;4955882;28;20480;-82
2021/08/16 08:08:18;;;;;;;26.75;11.50;;;;;;;;;;4956274;28;20082;-80
2021/08/16 08:10:45;;;;;;;21.05;10.77;;;;;;;;;;4955936;28;20078;-81
2021/08/16 08:13:14;;;;;;;21.75;10.18;;;;;;;;;;4958639;28;20759;-81
2021/08/16 08:15:41;;;;;;;24.83;11.30;;;;;;;;;;4964579;28;20644;-82
2021/08/16 08:18:10;;;;;;;25.58;10.68;;;;;;;;;;4958858;28;20054;-81
2021/08/16 08:20:38;;;;;;;24.58;11.05;;;;;;;;;;4953853;28;20807;-84
2021/08/16 08:23:05;;;;;;;24.20;11.18;;;;;;;;;;4952075;28;20119;-82
2021/08/16 08:25:39;;;;;;;22.52;9.68;;;;;;;;;;4951325;28;20043;-81
2021/08/16 08:28:17;;;;;;;28.45;11.82;;;;;;;;;;4951136;28;20074;-83
2021/08/16 08:30:45;;;;;;;18.77;10.65;;;;;;;;;;4947002;28;20149;-82
2021/08/16 08:33:17;;;;;;;20.90;10.57;;;;;;;;;;4973057;28;20054;-82
2021/08/16 08:35:47;;;;;;;23.33;10.23;;;;;;;;;;4952796;28;20138;-82
2021/08/16 08:38:19;;;;;;;21.85;10.23;;;;;;;;;;4959773;28;20142;-82
2021/08/16 08:40:49;;;;;;;20.02;10.15;;;;;;;;;;4946341;28;20050;-83
2021/08/16 08:43:16;;;;;;;19.40;10.23;;;;;;;;;;4941615;28;20098;-82
2021/08/16 08:45:44;;;;;;;22.33;9.63;;;;;;;;;;4972493;28;20155;-83
2021/08/16 08:48:17;;;;;;;25.42;11.00;;;;;;;;;;4956054;28;20127;-83
2021/08/16 08:50:46;;;;;;;20.38;9.77;;;;;;;;;;4945755;29;20083;-83
2021/08/16 08:53:13;;;;;;;18.20;9.45;;;;;;;;;;4953323;28;20134;-84
2021/08/16 08:55:40;;;;;;;18.10;8.80;;;;;;;;;;4952038;29;20130;-83
2021/08/16 08:58:13;;;;;;;20.55;9.45;;;;;;;;;;4952170;28;20051;-84
2021/08/16 09:00:41;;;;;;;25.58;10.35;;;;;;;;;;4972568;28;20042;-83
2021/08/16 09:03:09;;;;;;;24.65;9.93;;;;;;;;;;4954745;28;20159;-83
2021/08/16 09:05:47;;;;;;;30.27;9.65;;;;;;;;;;4965731;28;20051;-83
2021/08/16 09:08:24;;;;;;;20.83;9.73;;;;;;;;;;4955161;28;20078;-84
2021/08/16 09:10:52;;;;;;;22.83;9.48;;;;;;;;;;4954435;28;20143;-82
2021/08/16 09:13:26;;;;;;;23.73;8.93;;;;;;;;;;4952353;28;20051;-82
2021/08/16 09:15:55;;;;;;;24.13;9.13;;;;;;;;;;4954519;28;20070;-83
2021/08/16 09:18:32;;;;;;;19.98;9.68;;;;;;;;;;4972561;28;20059;-83
2021/08/16 09:21:01;;;;;;;26.88;8.98;;;;;;;;;;4954621;28;20090;-83
2021/08/16 09:23:29;;;;;;;17.80;9.38;;;;;;;;;;4955060;28;20086;-82
2021/08/16 09:25:57;;;;;;;15.63;7.43;;;;;;;;;;4958096;28;20113;-83
2021/08/16 09:28:29;;;;;;;24.88;8.23;;;;;;;;;;4972146;28;20077;-83
2021/08/16 09:30:56;;;;;;;26.50;8.23;;;;;;;;;;4954918;28;20058;-83
2021/08/16 09:33:24;;;;;;;17.05;7.45;;;;;;;;;;4955445;28;20491;-83
2021/08/16 09:39:21;;;;;;;17.15;6.72;;;;;;;;;;4953378;23;20566;-84
2021/08/16 09:41:55;;;;;;;19.45;8.00;;;;;;;;;;4948298;29;20135;-83
2021/08/16 09:44:22;;;;;;;24.73;7.97;;;;;;;;;;4948671;29;20083;-83
2021/08/16 09:47:04;;;;;;;23.10;7.03;;;;;;;;;;4948576;29;20078;-84
2021/08/16 09:49:32;;;;;;;17.60;6.88;;;;;;;;;;4944528;29;20106;-84
2021/08/16 09:52:03;;;;;;;19.92;7.00;;;;;;;;;;4943768;29;20051;-83
2021/08/16 09:54:32;;;;;;;18.38;7.32;;;;;;;;;;4935715;29;20051;-83
2021/08/16 09:57:00;;;;;;;15.85;6.60;;;;;;;;;;4945988;28;20180;-83
2021/08/16 09:59:28;;;;;;;19.55;7.20;;;;;;;;;;4952395;29;20184;-83
2021/08/16 10:01:56;;;;;;;22.90;7.38;;;;;;;;;;4956412;28;20083;-85
2021/08/16 10:04:32;;;;;;;19.58;8.25;;;;;;;;;;4971237;28;20047;-87
2021/08/16 10:07:02;;;;;;;21.65;8.13;;;;;;;;;;4941611;28;20501;-84
2021/08/16 10:09:47;;;;;;;20.65;7.13;;;;;;;;;;4945287;29;20130;-83
2021/08/16 10:12:16;;;;;;;18.48;6.32;;;;;;;;;;4931522;29;20079;-83
2021/08/16 10:14:48;;;;;;;15.75;6.40;;;;;;;;;;4948538;29;20532;-83
2021/08/16 10:17:21;;;;;;;13.73;6.00;;;;;;;;;;4934370;29;20491;-84
2021/08/16 10:19:51;;;;;;;18.35;7.03;;;;;;;;;;4917075;29;20135;-83
2021/08/16 10:22:18;;;;;;;17.42;6.05;;;;;;;;;;4919668;29;20540;-83
2021/08/16 10:24:45;;;;;;;14.70;6.05;;;;;;;;;;4920703;29;20117;-82
2021/08/16 10:27:12;;;;;;;16.15;5.80;;;;;;;;;;4934072;29;20098;-82
2021/08/16 10:29:41;;;;;;;17.45;6.38;;;;;;;;;;4935940;29;20134;-82
2021/08/16 10:32:20;;;;;;;16.15;6.13;;;;;;;;;;4940628;29;20098;-85
2021/08/16 10:34:47;;;;;;;12.85;5.50;;;;;;;;;;4932380;29;20048;-82
2021/08/16 10:37:15;;;;;;;19.23;7.28;;;;;;;;;;4950088;29;20763;-82
2021/08/16 10:39:47;;;;;;;21.25;6.72;;;;;;;;;;4944849;29;20130;-84
2021/08/16 10:42:18;;;;;;;18.40;6.30;;;;;;;;;;4927748;29;20048;-85
2021/08/16 10:44:48;;;;;;;20.00;6.07;;;;;;;;;;4954163;28;20485;-84
2021/08/16 10:47:29;;;;;;;12.63;5.20;;;;;;;;;;4970655;28;20150;-85
2021/08/16 10:50:06;;;;;;;18.13;5.40;;;;;;;;;;4964530;28;20099;-84
2021/08/16 10:52:34;;;;;;;14.13;4.70;;;;;;;;;;4931661;29;20143;-84
2021/08/16 10:55:27;;;;;;;17.10;5.32;;;;;;;;;;4942002;29;20040;-83
2021/08/16 10:57:54;;;;;;;11.63;4.50;;;;;;;;;;4932412;29;20489;-84
2021/08/16 11:00:22;;;;;;;16.55;4.53;;;;;;;;;;4962072;28;20051;-85
2021/08/16 11:02:58;;;;;;;11.90;4.55;;;;;;;;;;4942828;29;20398;-84
2021/08/16 11:05:33;;;;;;;10.48;3.60;;;;;;;;;;4932687;29;20486;-86
2021/08/16 11:08:03;;;;;;;13.15;4.28;;;;;;;;;;4949910;29;20044;-83
2021/08/16 11:10:43;;;;;;;9.38;3.63;;;;;;;;;;4936667;29;20044;-84
2021/08/16 11:13:15;;;;;;;10.15;3.92;;;;;;;;;;4943385;28;20048;-84
2021/08/16 11:15:43;;;;;;;11.52;4.03;;;;;;;;;;4954504;28;20408;-85
2021/08/16 11:18:12;;;;;;;10.35;4.10;;;;;;;;;;4948912;28;20781;-85
2021/08/16 11:20:40;;;;;;;12.05;4.45;;;;;;;;;;4939621;28;20674;-87
2021/08/16 11:23:09;;;;;;;13.40;4.20;;;;;;;;;;4952052;28;20075;-84
2021/08/16 11:25:36;;;;;;;8.15;3.92;;;;;;;;;;4934188;29;20051;-85
2021/08/16 11:28:07;;;;;;;11.15;4.07;;;;;;;;;;4930170;29;20179;-83
2021/08/16 11:30:34;;;;;;;13.85;4.05;;;;;;;;;;4952639;28;20163;-86
2021/08/16 11:33:01;;;;;;;14.43;3.35;;;;;;;;;;4962662;28;20075;-87
2021/08/16 11:35:28;;;;;;;11.20;3.90;;;;;;;;;;4934768;29;20131;-85
2021/08/16 11:37:55;;;;;;;12.70;3.80;;;;;;;;;;4950015;29;20760;-84
2021/08/16 11:40:24;;;;;;;8.20;3.97;;;;;;;;;;4935490;29;20556;-85
2021/08/16 11:43:05;;;;;;;12.70;5.30;;;;;;;;;;4929792;29;20046;-84
2021/08/16 11:45:36;;;;;;;14.73;5.45;;;;;;;;;;4938992;29;20134;-85
2021/08/16 11:48:04;;;;;;;7.43;3.72;;;;;;;;;;4933701;29;20053;-84
2021/08/16 11:50:31;;;;;;;16.70;4.65;;;;;;;;;;4960472;28;20051;-84
2021/08/16 11:52:58;;;;;;;14.48;4.97;;;;;;;;;;4933367;29;20413;-84
2021/08/16 11:55:27;;;;;;;9.40;4.50;;;;;;;;;;4932590;29;20052;-87
2021/08/16 11:57:55;;;;;;;17.83;4.47;;;;;;;;;;4928328;29;20051;-85
2021/08/16 12:00:36;;;;;;;16.05;4.03;;;;;;;;;;4963709;28;20489;-87
2021/08/16 12:03:04;;;;;;;20.15;5.63;;;;;;;;;;4933970;29;20126;-85
2021/08/16 12:05:32;;;;;;;19.35;6.53;;;;;;;;;;4933344;29;20148;-84
2021/08/16 12:08:04;;;;;;;14.30;6.15;;;;;;;;;;4934404;29;20047;-85
2021/08/16 12:10:41;;;;;;;20.33;7.72;;;;;;;;;;4934734;29;20043;-85
2021/08/16 12:13:13;;;;;;;22.35;7.53;;;;;;;;;;4944832;28;20115;-88
2021/08/16 12:15:41;;;;;;;16.63;7.30;;;;;;;;;;4949926;29;20087;-87
2021/08/16 12:18:10;;;;;;;17.23;7.72;;;;;;;;;;4948337;29;20079;-85
2021/08/16 12:20:45;;;;;;;16.95;7.50;;;;;;;;;;4934705;29;20091;-85
2021/08/16 12:23:23;;;;;;;18.25;7.95;;;;;;;;;;4949248;29;20079;-85
2021/08/16 12:25:50;;;;;;;17.63;7.18;;;;;;;;;;4952638;28;20078;-86
2021/08/16 12:28:34;;;;;;;18.88;6.03;;;;;;;;;;4923737;29;20544;-85
2021/08/16 12:31:11;;;;;;;13.80;5.47;;;;;;;;;;4948884;29;20183;-86
2021/08/16 12:33:51;;;;;;;10.20;5.35;;;;;;;;;;4917669;29;20051;-85
2021/08/16 12:36:21;;;;;;;10.40;4.75;;;;;;;;;;4933068;29;20449;-89
2021/08/16 12:38:54;;;;;;;8.45;4.57;;;;;;;;;;4947451;29;20232;-86
2021/08/16 12:41:25;;;;;;;12.88;4.72;;;;;;;;;;4945253;28;20510;-85
2021/08/16 12:43:53;;;;;;;12.07;4.88;;;;;;;;;;4929431;29;20130;-85
2021/08/16 12:46:38;;;;;;;15.27;5.28;;;;;;;;;;4927841;29;20055;-86
2021/08/16 12:49:05;;;;;;;12.20;6.00;;;;;;;;;;4934196;29;20051;-85
2021/08/16 12:51:33;;;;;;;20.25;7.95;;;;;;;;;;4947952;29;20486;-81
2021/08/16 12:54:01;;;;;;;14.32;7.15;;;;;;;;;;4933190;29;20047;-81
2021/08/16 12:56:32;;;;;;;12.73;5.93;;;;;;;;;;4932189;29;20476;-85
2021/08/16 12:59:01;;;;;;;12.85;6.03;;;;;;;;;;4937331;29;20464;-84
2021/08/16 13:01:35;;;;;;;9.52;4.55;;;;;;;;;;4938753;29;20146;-83
2021/08/16 13:04:02;;;;;;;13.20;5.57;;;;;;;;;;4932409;29;20107;-82
2021/08/16 13:06:30;;;;;;;11.95;4.82;;;;;;;;;;4951100;29;20101;-83
2021/08/16 13:09:00;;;;;;;11.05;4.97;;;;;;;;;;4955535;28;20079;-83
2021/08/16 13:11:28;;;;;;;10.00;4.80;;;;;;;;;;4929125;29;20094;-83
2021/08/16 13:13:56;;;;;;;11.38;5.68;;;;;;;;;;4952206;28;20493;-84
2021/08/16 13:16:25;;;;;;;9.48;4.18;;;;;;;;;;4948578;29;20147;-82
2021/08/16 13:19:04;;;;;;;8.98;4.40;;;;;;;;;;4935795;29;20055;-82
2021/08/16 13:21:32;;;;;;;9.95;4.40;;;;;;;;;;4933346;29;20110;-83
2021/08/16 13:23:59;;;;;;;12.05;4.57;;;;;;;;;;4936538;29;20090;-83
2021/08/16 13:26:27;;;;;;;23.58;5.20;;;;;;;;;;4948303;29;20047;-81
2021/08/16 13:28:55;;;;;;;10.90;5.57;;;;;;;;;;4952308;28;20072;-83
2021/08/16 13:31:22;;;;;;;10.88;4.18;;;;;;;;;;4936219;29;20079;-83
2021/08/16 13:33:49;;;;;;;7.25;3.28;;;;;;;;;;4951751;29;20052;-81
2021/08/16 13:36:17;;;;;;;9.32;3.35;;;;;;;;;;4952126;29;20755;-82
2021/08/16 13:38:44;;;;;;;8.88;3.72;;;;;;;;;;4950460;29;20150;-82
2021/08/16 13:41:11;;;;;;;6.60;3.45;;;;;;;;;;4928985;29;20072;-83
2021/08/16 13:43:40;;;;;;;12.20;3.85;;;;;;;;;;4931591;28;20087;-84
2021/08/16 13:46:07;;;;;;;7.72;3.80;;;;;;;;;;4948462;29;20153;-83
2021/08/16 13:48:35;;;;;;;12.88;4.55;;;;;;;;;;4935073;29;20055;-81
2021/08/16 13:51:10;;;;;;;7.55;4.07;;;;;;;;;;4926175;29;20135;-83
2021/08/16 13:53:37;;;;;;;11.73;4.90;;;;;;;;;;4936134;29;20047;-83
2021/08/16 13:56:05;;;;;;;9.38;4.50;;;;;;;;;;4931211;29;20123;-83
2021/08/16 13:58:32;;;;;;;8.77;4.82;;;;;;;;;;4936261;29;20500;-83
2021/08/16 14:01:01;;;;;;;10.75;4.05;;;;;;;;;;4940392;29;20126;-83
2021/08/16 14:03:30;;;;;;;7.65;3.78;;;;;;;;;;4951965;28;20055;-84
2021/08/16 14:05:58;;;;;;;6.68;3.72;;;;;;;;;;4935378;29;20083;-83
2021/08/16 14:08:25;;;;;;;5.80;3.00;;;;;;;;;;4961657;28;20058;-82
2021/08/16 14:10:56;;;;;;;7.45;3.40;;;;;;;;;;4951103;28;20052;-84
2021/08/16 14:13:25;;;;;;;4.97;3.67;;;;;;;;;;4936591;29;20055;-84
2021/08/16 14:15:53;;;;;;;9.55;3.08;;;;;;;;;;4949211;29;20052;-85
2021/08/16 14:18:20;;;;;;;14.18;3.42;;;;;;;;;;4932197;29;20052;-83
2021/08/16 14:20:49;;;;;;;4.55;2.75;;;;;;;;;;4948481;28;20126;-84
2021/08/16 14:23:16;;;;;;;6.65;2.80;;;;;;;;;;4936309;29;20052;-84
2021/08/16 14:25:44;;;;;;;8.02;3.20;;;;;;;;;;4939962;29;20040;-85
2021/08/16 14:28:11;;;;;;;5.57;2.80;;;;;;;;;;4936633;29;20082;-85
2021/08/16 14:30:40;;;;;;;7.90;2.90;;;;;;;;;;4948602;29;20569;-83
2021/08/16 14:33:07;;;;;;;4.00;2.67;;;;;;;;;;4936405;29;20098;-84
2021/08/16 14:35:38;;;;;;;7.95;3.10;;;;;;;;;;4935690;29;20059;-83
2021/08/16 14:38:05;;;;;;;12.15;3.97;;;;;;;;;;4948396;29;20079;-82
2021/08/16 14:40:33;;;;;;;11.93;3.38;;;;;;;;;;4946484;28;20138;-82
2021/08/16 14:43:04;;;;;;;8.35;3.33;;;;;;;;;;4924587;29;20048;-82